Time;durP1;ratioP1;P1;durP2;ratioP2;P2;SDS_P1;SDS_P2;PMS_P1;PMS_P2;Temp;Humidity;BMP_temperature;BMP_pressure;BME280_temperature;BME280_humidity;BME280_pressure;Samples;Min_cycle;Max_cycle;Signal;HPM_P1;HPM_P2
2024/03/03 00:01:08;;;;;;;0.67;0.67;;;;;;;;;;5061384;28;20233;-73
2024/03/03 00:03:35;;;;;;;0.30;0.30;;;;;;;;;;5059207;28;20229;-73
2024/03/03 00:06:04;;;;;;;0.60;0.60;;;;;;;;;;5043847;28;20309;-73
2024/03/03 00:08:31;;;;;;;0.40;0.40;;;;;;;;;;5041178;28;20227;-73
2024/03/03 00:10:57;;;;;;;0.30;0.30;;;;;;;;;;5060047;28;20223;-73
2024/03/03 00:13:24;;;;;;;0.30;0.30;;;;;;;;;;5062339;28;20685;-73
2024/03/03 00:15:51;;;;;;;0.20;0.20;;;;;;;;;;5064203;28;20234;-73
2024/03/03 00:18:17;;;;;;;0.20;0.20;;;;;;;;;;5065939;28;20222;-73
2024/03/03 00:20:44;;;;;;;0.67;0.67;;;;;;;;;;5061660;28;20234;-73
2024/03/03 00:23:10;;;;;;;0.30;0.30;;;;;;;;;;5060463;28;20223;-74
2024/03/03 00:25:37;;;;;;;0.50;0.50;;;;;;;;;;5061844;28;20238;-73
2024/03/03 00:28:04;;;;;;;0.40;0.40;;;;;;;;;;5067949;28;20222;-73
2024/03/03 00:30:30;;;;;;;0.50;0.50;;;;;;;;;;5058923;28;20219;-74
2024/03/03 00:32:57;;;;;;;0.30;0.30;;;;;;;;;;5043886;28;20693;-72
2024/03/03 00:35:23;;;;;;;0.30;0.30;;;;;;;;;;5063542;28;20292;-72
2024/03/03 00:37:49;;;;;;;0.30;0.30;;;;;;;;;;5049752;28;20223;-74
2024/03/03 00:40:17;;;;;;;0.40;0.40;;;;;;;;;;5040951;28;20231;-72
2024/03/03 00:42:43;;;;;;;0.40;0.40;;;;;;;;;;5061134;28;20219;-72
2024/03/03 00:45:11;;;;;;;0.30;0.30;;;;;;;;;;5052185;28;20227;-73
2024/03/03 00:47:37;;;;;;;0.40;0.40;;;;;;;;;;5045965;28;20231;-73
2024/03/03 00:50:05;;;;;;;1.03;1.00;;;;;;;;;;5065277;28;20253;-72
2024/03/03 00:52:31;;;;;;;0.30;0.30;;;;;;;;;;5043992;28;20231;-73
2024/03/03 00:54:58;;;;;;;0.40;0.40;;;;;;;;;;5063690;28;20231;-73
2024/03/03 00:57:24;;;;;;;1.20;1.10;;;;;;;;;;5061844;28;20247;-73
2024/03/03 00:59:51;;;;;;;0.93;0.90;;;;;;;;;;5061169;28;20228;-73
2024/03/03 01:02:17;;;;;;;0.37;0.37;;;;;;;;;;5060902;28;20218;-73
2024/03/03 01:04:44;;;;;;;0.93;0.93;;;;;;;;;;5075751;28;20226;-73
2024/03/03 01:07:10;;;;;;;0.80;0.80;;;;;;;;;;5057375;28;20223;-73
2024/03/03 01:09:37;;;;;;;0.30;0.30;;;;;;;;;;5051876;28;21066;-73
2024/03/03 01:12:04;;;;;;;0.30;0.30;;;;;;;;;;5062803;28;20249;-73
2024/03/03 01:14:31;;;;;;;2.93;1.43;;;;;;;;;;5044629;28;20231;-73
2024/03/03 01:16:58;;;;;;;0.43;0.43;;;;;;;;;;5059707;28;20238;-73
2024/03/03 01:19:24;;;;;;;0.30;0.30;;;;;;;;;;5043641;28;20231;-73
2024/03/03 01:21:51;;;;;;;0.97;0.97;;;;;;;;;;5064561;28;20224;-73
2024/03/03 01:24:17;;;;;;;0.80;0.80;;;;;;;;;;5062932;28;20226;-73
2024/03/03 01:26:44;;;;;;;0.30;0.30;;;;;;;;;;5063044;28;20227;-73
2024/03/03 01:29:10;;;;;;;0.30;0.30;;;;;;;;;;5051959;28;20227;-73
2024/03/03 01:31:40;;;;;;;0.30;0.30;;;;;;;;;;5044163;28;20219;-73
2024/03/03 01:34:07;;;;;;;0.63;0.63;;;;;;;;;;5063913;28;20246;-73
2024/03/03 01:36:34;;;;;;;0.40;0.40;;;;;;;;;;5044651;28;20223;-73
2024/03/03 01:39:01;;;;;;;0.30;0.30;;;;;;;;;;5060537;28;20231;-73
2024/03/03 01:41:28;;;;;;;0.40;0.40;;;;;;;;;;5048543;28;20239;-73
2024/03/03 01:43:54;;;;;;;0.53;0.53;;;;;;;;;;5062112;28;20673;-73
2024/03/03 01:46:21;;;;;;;0.30;0.30;;;;;;;;;;5044551;28;20709;-73
2024/03/03 01:48:47;;;;;;;0.30;0.30;;;;;;;;;;5057602;28;20231;-73
2024/03/03 01:51:16;;;;;;;0.30;0.30;;;;;;;;;;5047911;28;20223;-73
2024/03/03 01:53:45;;;;;;;0.30;0.30;;;;;;;;;;5061949;28;20222;-73
2024/03/03 01:56:11;;;;;;;0.33;0.33;;;;;;;;;;5063834;28;20641;-73
2024/03/03 01:58:39;;;;;;;0.40;0.40;;;;;;;;;;5061237;28;20234;-73
2024/03/03 02:01:07;;;;;;;0.30;0.30;;;;;;;;;;5059875;28;20229;-73
2024/03/03 02:03:34;;;;;;;0.30;0.30;;;;;;;;;;5059662;28;20223;-73
2024/03/03 02:06:01;;;;;;;0.20;0.20;;;;;;;;;;5063607;28;20215;-73
2024/03/03 02:08:30;;;;;;;0.40;0.40;;;;;;;;;;5059103;28;20226;-73
2024/03/03 02:10:57;;;;;;;0.57;0.57;;;;;;;;;;5061166;28;20226;-73
2024/03/03 02:13:23;;;;;;;0.30;0.30;;;;;;;;;;5063427;28;20219;-73
2024/03/03 02:15:50;;;;;;;0.43;0.43;;;;;;;;;;5059749;28;20338;-73
2024/03/03 02:18:17;;;;;;;0.67;0.67;;;;;;;;;;5061320;28;20595;-73
2024/03/03 02:20:45;;;;;;;1.63;0.60;;;;;;;;;;5058986;28;20715;-73
2024/03/03 02:23:12;;;;;;;1.17;1.13;;;;;;;;;;5054255;28;20594;-73
2024/03/03 02:25:39;;;;;;;0.30;0.30;;;;;;;;;;5041096;28;20215;-73
2024/03/03 02:28:08;;;;;;;0.20;0.20;;;;;;;;;;5057534;28;20487;-73
2024/03/03 02:30:34;;;;;;;0.20;0.20;;;;;;;;;;5056815;28;20247;-73
2024/03/03 02:33:01;;;;;;;0.50;0.50;;;;;;;;;;5051277;28;20248;-73
2024/03/03 02:35:28;;;;;;;0.30;0.30;;;;;;;;;;5041411;28;20233;-73
2024/03/03 02:37:54;;;;;;;0.30;0.30;;;;;;;;;;5052261;28;20234;-74
2024/03/03 02:40:21;;;;;;;0.70;0.70;;;;;;;;;;5058975;28;20222;-73
2024/03/03 02:42:47;;;;;;;0.40;0.40;;;;;;;;;;5056969;28;20749;-73
2024/03/03 02:45:14;;;;;;;0.30;0.30;;;;;;;;;;5054664;28;20274;-73
2024/03/03 02:47:40;;;;;;;0.30;0.30;;;;;;;;;;5047668;28;20751;-73
2024/03/03 02:50:07;;;;;;;0.30;0.30;;;;;;;;;;5028084;28;20232;-73
2024/03/03 02:52:34;;;;;;;0.30;0.30;;;;;;;;;;5052664;28;20237;-73
2024/03/03 02:55:00;;;;;;;0.73;0.73;;;;;;;;;;5036446;28;20237;-73
2024/03/03 02:57:27;;;;;;;0.23;0.23;;;;;;;;;;5035466;28;20227;-73
2024/03/03 02:59:55;;;;;;;0.33;0.33;;;;;;;;;;5036921;28;20232;-73
2024/03/03 03:02:22;;;;;;;0.50;0.50;;;;;;;;;;5017798;28;20603;-73
2024/03/03 03:04:51;;;;;;;0.30;0.30;;;;;;;;;;5023436;28;20224;-73
2024/03/03 03:07:17;;;;;;;0.53;0.53;;;;;;;;;;5039663;28;20222;-73
2024/03/03 03:09:45;;;;;;;0.70;0.70;;;;;;;;;;5037656;28;20327;-74
2024/03/03 03:12:12;;;;;;;0.30;0.30;;;;;;;;;;5037707;28;20242;-74
2024/03/03 03:14:39;;;;;;;0.30;0.30;;;;;;;;;;5033614;28;20259;-75
2024/03/03 03:17:05;;;;;;;0.40;0.40;;;;;;;;;;5041805;28;20279;-73
2024/03/03 03:19:32;;;;;;;0.30;0.30;;;;;;;;;;5040743;28;20323;-73
2024/03/03 03:21:59;;;;;;;0.30;0.30;;;;;;;;;;5041939;28;20228;-73
2024/03/03 03:24:26;;;;;;;0.53;0.53;;;;;;;;;;5039862;28;20277;-73
2024/03/03 03:26:53;;;;;;;0.30;0.30;;;;;;;;;;5038647;28;20261;-73
2024/03/03 03:29:19;;;;;;;0.30;0.30;;;;;;;;;;5042319;28;20223;-73
2024/03/03 03:31:46;;;;;;;0.40;0.40;;;;;;;;;;5039132;28;20223;-73
2024/03/03 03:34:12;;;;;;;0.30;0.30;;;;;;;;;;5021632;28;20227;-73
2024/03/03 03:36:39;;;;;;;0.60;0.60;;;;;;;;;;5027884;28;20228;-73
2024/03/03 03:39:12;;;;;;;0.40;0.40;;;;;;;;;;5039270;28;20286;-73
2024/03/03 03:41:49;;;;;;;0.30;0.30;;;;;;;;;;5037859;28;20224;-73
2024/03/03 03:44:18;;;;;;;0.30;0.30;;;;;;;;;;5020594;28;20224;-73
2024/03/03 03:46:45;;;;;;;0.30;0.30;;;;;;;;;;5038585;28;20276;-73
2024/03/03 03:49:13;;;;;;;0.30;0.30;;;;;;;;;;5043883;28;20306;-73
2024/03/03 03:51:39;;;;;;;0.93;0.93;;;;;;;;;;5044198;28;20230;-73
2024/03/03 03:54:06;;;;;;;0.30;0.30;;;;;;;;;;5032713;28;20215;-73
2024/03/03 03:56:34;;;;;;;0.30;0.30;;;;;;;;;;5039619;28;20224;-73
2024/03/03 03:59:01;;;;;;;0.30;0.30;;;;;;;;;;5045300;28;20239;-73
2024/03/03 04:01:28;;;;;;;0.30;0.30;;;;;;;;;;5041732;28;20230;-73
2024/03/03 04:03:55;;;;;;;0.30;0.30;;;;;;;;;;5045463;28;20235;-73
2024/03/03 04:06:26;;;;;;;0.30;0.30;;;;;;;;;;5044660;28;20234;-73
2024/03/03 04:08:53;;;;;;;0.30;0.30;;;;;;;;;;5042566;28;20236;-73
2024/03/03 04:11:20;;;;;;;0.30;0.30;;;;;;;;;;5042399;28;20224;-73
2024/03/03 04:13:48;;;;;;;0.43;0.43;;;;;;;;;;5042254;28;20269;-73
2024/03/03 04:16:15;;;;;;;0.30;0.30;;;;;;;;;;5044381;28;20227;-73
2024/03/03 04:18:41;;;;;;;0.33;0.33;;;;;;;;;;5040518;28;20227;-73
2024/03/03 04:21:08;;;;;;;0.30;0.30;;;;;;;;;;5045991;28;20246;-73
2024/03/03 04:23:36;;;;;;;0.30;0.30;;;;;;;;;;5042851;28;20226;-73
2024/03/03 04:26:06;;;;;;;0.73;0.73;;;;;;;;;;5045723;28;20230;-73
2024/03/03 04:28:33;;;;;;;0.20;0.20;;;;;;;;;;5042900;28;20231;-73
2024/03/03 04:31:06;;;;;;;0.30;0.30;;;;;;;;;;5042200;28;20238;-73
2024/03/03 04:33:34;;;;;;;0.30;0.30;;;;;;;;;;5043535;28;20230;-73
2024/03/03 04:36:01;;;;;;;0.30;0.30;;;;;;;;;;5042334;28;20262;-73
2024/03/03 04:38:28;;;;;;;0.30;0.30;;;;;;;;;;5044042;28;20716;-73
2024/03/03 04:40:54;;;;;;;0.30;0.30;;;;;;;;;;5044419;28;20262;-73
2024/03/03 04:43:21;;;;;;;0.30;0.30;;;;;;;;;;5044545;28;20228;-73
2024/03/03 04:45:48;;;;;;;0.30;0.30;;;;;;;;;;5045595;28;20231;-73
2024/03/03 04:48:14;;;;;;;0.40;0.40;;;;;;;;;;5044938;28;20649;-73
2024/03/03 04:50:41;;;;;;;0.30;0.30;;;;;;;;;;5042924;28;20231;-73
2024/03/03 04:53:08;;;;;;;0.30;0.30;;;;;;;;;;5040233;28;20219;-73
2024/03/03 04:55:35;;;;;;;0.30;0.30;;;;;;;;;;5043843;28;20224;-73
2024/03/03 04:58:01;;;;;;;0.30;0.30;;;;;;;;;;5045678;28;20228;-73
2024/03/03 05:00:28;;;;;;;0.30;0.30;;;;;;;;;;5042402;28;20626;-74
2024/03/03 05:02:54;;;;;;;0.30;0.30;;;;;;;;;;5039804;28;20265;-73
2024/03/03 05:05:20;;;;;;;0.30;0.30;;;;;;;;;;5043613;28;20228;-74
2024/03/03 05:07:47;;;;;;;0.30;0.30;;;;;;;;;;5042713;28;20709;-73
2024/03/03 05:10:13;;;;;;;1.13;0.97;;;;;;;;;;5039743;28;20232;-73
2024/03/03 05:12:40;;;;;;;0.30;0.30;;;;;;;;;;5038156;28;20231;-74
2024/03/03 05:15:07;;;;;;;0.30;0.30;;;;;;;;;;5042940;28;20250;-74
2024/03/03 05:17:34;;;;;;;0.33;0.33;;;;;;;;;;5041637;28;20227;-73
2024/03/03 05:20:02;;;;;;;0.30;0.30;;;;;;;;;;5046415;28;20262;-74
2024/03/03 05:22:29;;;;;;;0.67;0.67;;;;;;;;;;5040859;28;20311;-73
2024/03/03 05:24:55;;;;;;;0.30;0.30;;;;;;;;;;5043148;28;20228;-73
2024/03/03 05:27:22;;;;;;;0.30;0.30;;;;;;;;;;5031979;28;20257;-74
2024/03/03 05:29:49;;;;;;;0.30;0.30;;;;;;;;;;5056441;28;20222;-73
2024/03/03 05:32:15;;;;;;;0.30;0.30;;;;;;;;;;5042068;28;20229;-73
2024/03/03 05:34:41;;;;;;;0.77;0.77;;;;;;;;;;5056585;28;20313;-73
2024/03/03 05:37:09;;;;;;;0.30;0.30;;;;;;;;;;5066480;28;20879;-74
2024/03/03 05:39:36;;;;;;;0.30;0.30;;;;;;;;;;5068398;28;20230;-74
2024/03/03 05:42:03;;;;;;;0.40;0.40;;;;;;;;;;5063498;28;20230;-74
2024/03/03 05:44:30;;;;;;;0.30;0.30;;;;;;;;;;5053736;28;20227;-75
2024/03/03 05:47:00;;;;;;;0.57;0.57;;;;;;;;;;5054614;28;20277;-74
2024/03/03 05:49:27;;;;;;;4.90;1.23;;;;;;;;;;5067129;28;20239;-74
2024/03/03 05:51:53;;;;;;;0.30;0.30;;;;;;;;;;5062527;28;20266;-74
2024/03/03 05:54:19;;;;;;;0.30;0.30;;;;;;;;;;5059737;28;20223;-74
2024/03/03 05:56:46;;;;;;;0.30;0.30;;;;;;;;;;5058972;28;20227;-73
2024/03/03 05:59:14;;;;;;;0.60;0.60;;;;;;;;;;5029674;28;20226;-73
2024/03/03 06:01:47;;;;;;;0.30;0.30;;;;;;;;;;5044663;28;20223;-74
2024/03/03 06:04:18;;;;;;;0.30;0.30;;;;;;;;;;5060099;28;20573;-73
2024/03/03 06:06:45;;;;;;;0.27;0.27;;;;;;;;;;5062318;28;20586;-73
2024/03/03 06:09:12;;;;;;;0.30;0.30;;;;;;;;;;5061377;28;20696;-73
2024/03/03 06:11:40;;;;;;;0.50;0.50;;;;;;;;;;5060788;28;20219;-73
2024/03/03 06:14:08;;;;;;;0.30;0.30;;;;;;;;;;5043859;28;20223;-73
2024/03/03 06:16:36;;;;;;;0.30;0.30;;;;;;;;;;5040738;28;20227;-73
2024/03/03 06:19:03;;;;;;;0.83;0.83;;;;;;;;;;5023540;28;20230;-73
2024/03/03 06:21:30;;;;;;;0.30;0.30;;;;;;;;;;5050153;28;20235;-73
2024/03/03 06:23:57;;;;;;;0.53;0.53;;;;;;;;;;5061180;28;20234;-73
2024/03/03 06:26:28;;;;;;;0.63;0.63;;;;;;;;;;5043404;28;20214;-73
2024/03/03 06:28:55;;;;;;;0.30;0.30;;;;;;;;;;5023298;28;20243;-73
2024/03/03 06:31:21;;;;;;;0.30;0.30;;;;;;;;;;5038930;28;20220;-73
2024/03/03 06:33:48;;;;;;;0.40;0.40;;;;;;;;;;5041024;28;20653;-74
2024/03/03 06:36:17;;;;;;;0.30;0.30;;;;;;;;;;5021684;28;20262;-73
2024/03/03 06:38:44;;;;;;;0.30;0.30;;;;;;;;;;5038340;28;20730;-74
2024/03/03 06:41:14;;;;;;;0.30;0.30;;;;;;;;;;5041038;28;20226;-73
2024/03/03 06:43:42;;;;;;;0.40;0.40;;;;;;;;;;5040023;28;20226;-73
2024/03/03 06:46:10;;;;;;;0.30;0.30;;;;;;;;;;5038644;28;20231;-73
2024/03/03 06:48:37;;;;;;;0.30;0.30;;;;;;;;;;5039864;28;20316;-73
2024/03/03 06:51:05;;;;;;;0.70;0.70;;;;;;;;;;5038626;28;20648;-73
2024/03/03 06:53:39;;;;;;;0.30;0.30;;;;;;;;;;5038410;28;20246;-73
2024/03/03 06:56:16;;;;;;;0.60;0.60;;;;;;;;;;5053983;28;20223;-73
2024/03/03 06:58:44;;;;;;;0.30;0.30;;;;;;;;;;5038486;28;20232;-73
2024/03/03 07:01:11;;;;;;;0.30;0.30;;;;;;;;;;5021434;28;20226;-73
2024/03/03 07:04:02;;;;;;;1.53;1.43;;;;;;;;;;5020383;28;20230;-74
2024/03/03 07:06:25;;;;;;;0.87;0.87;;;;;;;;;;5039158;28;20285;-74
2024/03/03 07:08:51;;;;;;;0.30;0.30;;;;;;;;;;5040063;28;20235;-73
2024/03/03 07:11:18;;;;;;;0.50;0.50;;;;;;;;;;5025148;28;20588;-73
2024/03/03 07:13:45;;;;;;;1.23;1.23;;;;;;;;;;5035996;28;20230;-74
2024/03/03 07:16:11;;;;;;;0.90;0.90;;;;;;;;;;5038398;28;20692;-74
2024/03/03 07:18:38;;;;;;;0.40;0.40;;;;;;;;;;5024412;28;20227;-74
2024/03/03 07:21:04;;;;;;;0.30;0.30;;;;;;;;;;5044037;28;20222;-73
2024/03/03 07:23:31;;;;;;;0.30;0.30;;;;;;;;;;5039585;28;20224;-73
2024/03/03 07:25:57;;;;;;;0.47;0.47;;;;;;;;;;5039753;28;20226;-74
2024/03/03 07:28:24;;;;;;;0.30;0.30;;;;;;;;;;5040179;28;20737;-73
2024/03/03 07:30:50;;;;;;;0.77;0.77;;;;;;;;;;5022025;28;20238;-73
2024/03/03 07:33:16;;;;;;;0.63;0.63;;;;;;;;;;5040840;28;20232;-73
2024/03/03 07:35:43;;;;;;;0.30;0.30;;;;;;;;;;5028766;28;20227;-73
2024/03/03 07:38:10;;;;;;;0.47;0.47;;;;;;;;;;5043851;28;20231;-74
2024/03/03 07:40:37;;;;;;;0.30;0.30;;;;;;;;;;5041114;28;20307;-74
2024/03/03 07:43:05;;;;;;;0.30;0.30;;;;;;;;;;5043200;28;20234;-74
2024/03/03 07:45:32;;;;;;;0.30;0.30;;;;;;;;;;5037973;28;20246;-74
2024/03/03 07:47:58;;;;;;;0.30;0.30;;;;;;;;;;5036802;28;20836;-74
2024/03/03 07:50:25;;;;;;;0.47;0.47;;;;;;;;;;5037738;28;20250;-74
2024/03/03 07:52:51;;;;;;;0.57;0.57;;;;;;;;;;5041449;28;20255;-74
2024/03/03 07:55:17;;;;;;;0.30;0.30;;;;;;;;;;5028938;28;20242;-74
2024/03/03 07:57:44;;;;;;;0.40;0.40;;;;;;;;;;5023930;28;20310;-74
2024/03/03 08:00:11;;;;;;;0.30;0.30;;;;;;;;;;5038267;28;20694;-75
2024/03/03 08:02:38;;;;;;;0.30;0.30;;;;;;;;;;5024318;28;20224;-74
2024/03/03 08:05:05;;;;;;;0.53;0.53;;;;;;;;;;5039958;28;20245;-74
2024/03/03 08:07:31;;;;;;;0.30;0.30;;;;;;;;;;5040664;28;20219;-75
2024/03/03 08:09:57;;;;;;;0.53;0.53;;;;;;;;;;5034914;28;20281;-74
2024/03/03 08:12:24;;;;;;;0.30;0.30;;;;;;;;;;5041296;28;20224;-75
2024/03/03 08:14:50;;;;;;;0.30;0.30;;;;;;;;;;5038894;28;20247;-75
2024/03/03 08:17:17;;;;;;;0.33;0.33;;;;;;;;;;5038086;28;20227;-74
2024/03/03 08:19:43;;;;;;;0.30;0.30;;;;;;;;;;5041140;28;20307;-74
2024/03/03 08:22:09;;;;;;;0.83;0.83;;;;;;;;;;5042651;28;20696;-74
2024/03/03 08:24:36;;;;;;;0.30;0.30;;;;;;;;;;5069052;28;20238;-75
2024/03/03 08:27:03;;;;;;;0.30;0.30;;;;;;;;;;5070381;28;20240;-76
2024/03/03 08:29:30;;;;;;;0.50;0.50;;;;;;;;;;5039066;28;20227;-75
2024/03/03 08:31:56;;;;;;;0.57;0.47;;;;;;;;;;5041039;28;20234;-75
2024/03/03 08:34:23;;;;;;;0.30;0.30;;;;;;;;;;5040124;28;20220;-74
2024/03/03 08:36:50;;;;;;;0.30;0.30;;;;;;;;;;5038639;28;20253;-74
2024/03/03 08:39:17;;;;;;;0.70;0.57;;;;;;;;;;5039467;28;20227;-74
2024/03/03 08:41:44;;;;;;;1.03;1.03;;;;;;;;;;5043174;28;20914;-75
2024/03/03 08:44:10;;;;;;;0.30;0.30;;;;;;;;;;5041161;28;20235;-74
2024/03/03 08:46:36;;;;;;;0.30;0.30;;;;;;;;;;5038201;28;20735;-75
2024/03/03 08:49:03;;;;;;;0.30;0.30;;;;;;;;;;5039170;28;20262;-74
2024/03/03 08:51:29;;;;;;;0.30;0.30;;;;;;;;;;5051433;28;20238;-74
2024/03/03 08:53:56;;;;;;;0.50;0.50;;;;;;;;;;5036471;28;20224;-74
2024/03/03 08:56:22;;;;;;;0.50;0.50;;;;;;;;;;5039873;28;20224;-74
2024/03/03 08:58:49;;;;;;;0.30;0.30;;;;;;;;;;5035869;28;20224;-74
2024/03/03 09:01:15;;;;;;;0.40;0.40;;;;;;;;;;5039162;28;20223;-74
2024/03/03 09:03:42;;;;;;;0.70;0.70;;;;;;;;;;5038300;28;20223;-74
2024/03/03 09:06:08;;;;;;;0.93;0.80;;;;;;;;;;5037073;28;20220;-75
2024/03/03 09:08:36;;;;;;;0.40;0.40;;;;;;;;;;5037568;28;20228;-74
2024/03/03 09:11:06;;;;;;;0.30;0.30;;;;;;;;;;5036354;28;20250;-74
2024/03/03 09:13:35;;;;;;;1.07;0.87;;;;;;;;;;5037756;28;20319;-74
2024/03/03 09:16:02;;;;;;;0.70;0.70;;;;;;;;;;5037302;28;20227;-74
2024/03/03 09:18:29;;;;;;;0.20;0.20;;;;;;;;;;5035523;28;20597;-75
2024/03/03 09:20:56;;;;;;;0.30;0.30;;;;;;;;;;5020697;28;20238;-75
2024/03/03 09:23:22;;;;;;;0.60;0.60;;;;;;;;;;5039201;28;20227;-75
2024/03/03 09:25:49;;;;;;;0.33;0.33;;;;;;;;;;5038880;28;20230;-75
2024/03/03 09:28:15;;;;;;;0.30;0.30;;;;;;;;;;5037843;28;20231;-75
2024/03/03 09:30:42;;;;;;;0.30;0.30;;;;;;;;;;5036423;28;20230;-75
2024/03/03 09:33:08;;;;;;;0.77;0.77;;;;;;;;;;5038935;28;20306;-76
2024/03/03 09:35:37;;;;;;;0.50;0.50;;;;;;;;;;5023996;28;20220;-75
2024/03/03 09:38:05;;;;;;;1.03;1.00;;;;;;;;;;5040549;28;20338;-76
2024/03/03 09:40:35;;;;;;;3.47;1.00;;;;;;;;;;5032184;28;20617;-75
2024/03/03 09:43:06;;;;;;;0.30;0.30;;;;;;;;;;5037158;28;20315;-76
2024/03/03 09:45:34;;;;;;;0.30;0.30;;;;;;;;;;5036931;28;20594;-76
2024/03/03 09:48:02;;;;;;;0.80;0.80;;;;;;;;;;5035389;28;20230;-76
2024/03/03 09:50:29;;;;;;;0.30;0.30;;;;;;;;;;5034937;28;20224;-76
2024/03/03 09:52:56;;;;;;;2.07;0.93;;;;;;;;;;5052006;28;20219;-76
2024/03/03 09:55:25;;;;;;;1.53;0.83;;;;;;;;;;5048823;28;21056;-76
2024/03/03 09:57:52;;;;;;;0.30;0.30;;;;;;;;;;5035005;28;20304;-77
2024/03/03 10:00:43;;;;;;;0.30;0.30;;;;;;;;;;5047478;28;20326;-80
2024/03/03 10:03:13;;;;;;;0.30;0.30;;;;;;;;;;5033589;28;20303;-77
2024/03/03 10:06:30;;;;;;;0.43;0.43;;;;;;;;;;5008868;28;20237;-79
2024/03/03 10:09:54;;;;;;;0.57;0.57;;;;;;;;;;5025909;28;20246;-76
2024/03/03 10:12:34;;;;;;;0.30;0.30;;;;;;;;;;5052620;28;20260;-76
2024/03/03 10:23:35;;;;;;;0.40;0.40;;;;;;;;;;4933834;28;20741;-77
2024/03/03 10:27:07;;;;;;;0.20;0.20;;;;;;;;;;4956537;28;20239;-79
2024/03/03 10:30:59;;;;;;;;;;;;;;;;;;;;;
2024/03/03 10:40:42;;;;;;;0.30;0.30;;;;;;;;;;5022771;28;20227;-76
2024/03/03 10:43:09;;;;;;;0.30;0.30;;;;;;;;;;5020589;28;20224;-76
2024/03/03 10:45:38;;;;;;;0.30;0.30;;;;;;;;;;5002288;28;20319;-76
2024/03/03 10:48:04;;;;;;;0.80;0.80;;;;;;;;;;5017057;28;20247;-75
2024/03/03 10:50:31;;;;;;;0.40;0.40;;;;;;;;;;5021188;28;20282;-76
2024/03/03 10:52:59;;;;;;;0.30;0.30;;;;;;;;;;5019713;28;20228;-76
2024/03/03 10:55:28;;;;;;;0.30;0.30;;;;;;;;;;5021389;28;20223;-76
2024/03/03 10:57:56;;;;;;;0.20;0.20;;;;;;;;;;5000673;28;20232;-77
2024/03/03 11:00:24;;;;;;;0.30;0.30;;;;;;;;;;5016572;28;20232;-76
2024/03/03 11:02:51;;;;;;;0.30;0.30;;;;;;;;;;5017224;28;20239;-75
2024/03/03 11:05:19;;;;;;;0.53;0.53;;;;;;;;;;5005401;28;20654;-76
2024/03/03 11:07:45;;;;;;;0.40;0.40;;;;;;;;;;5025402;28;20216;-75
2024/03/03 11:10:13;;;;;;;0.40;0.40;;;;;;;;;;5025497;28;20227;-75
2024/03/03 11:12:45;;;;;;;0.30;0.30;;;;;;;;;;5004852;28;20301;-74
2024/03/03 11:15:18;;;;;;;0.80;0.70;;;;;;;;;;5000587;28;20297;-76
2024/03/03 11:17:49;;;;;;;0.30;0.30;;;;;;;;;;5020602;28;20228;-77
2024/03/03 11:20:18;;;;;;;0.30;0.30;;;;;;;;;;5022906;28;20224;-77
2024/03/03 11:23:06;;;;;;;0.37;0.37;;;;;;;;;;5001796;28;20232;-76
2024/03/03 11:25:35;;;;;;;0.70;0.70;;;;;;;;;;5005794;28;20326;-76
2024/03/03 11:28:03;;;;;;;0.50;0.50;;;;;;;;;;5022314;28;20232;-75
2024/03/03 11:30:31;;;;;;;0.50;0.50;;;;;;;;;;5018142;28;20682;-76
2024/03/03 11:32:58;;;;;;;0.30;0.30;;;;;;;;;;5015943;28;20326;-76
2024/03/03 11:35:25;;;;;;;0.70;0.70;;;;;;;;;;5021162;28;21318;-75
2024/03/03 11:37:52;;;;;;;0.40;0.40;;;;;;;;;;5015481;28;20247;-75
2024/03/03 11:40:20;;;;;;;0.57;0.57;;;;;;;;;;5019539;28;23239;-76
2024/03/03 11:42:47;;;;;;;0.30;0.30;;;;;;;;;;5015833;28;20250;-75
2024/03/03 11:45:13;;;;;;;0.73;0.73;;;;;;;;;;4997126;28;20227;-77
2024/03/03 11:47:49;;;;;;;0.43;0.43;;;;;;;;;;5016016;28;20238;-79
2024/03/03 11:50:19;;;;;;;0.40;0.40;;;;;;;;;;5021588;28;20219;-77
2024/03/03 11:52:47;;;;;;;0.40;0.40;;;;;;;;;;5016416;28;20228;-75
2024/03/03 11:55:24;;;;;;;0.30;0.30;;;;;;;;;;5009776;28;20240;-74
2024/03/03 11:57:51;;;;;;;0.30;0.30;;;;;;;;;;4999809;28;20606;-75
2024/03/03 12:00:23;;;;;;;1.13;1.03;;;;;;;;;;4998345;28;20255;-75
2024/03/03 12:02:51;;;;;;;0.30;0.30;;;;;;;;;;5017782;28;20232;-76
2024/03/03 12:05:18;;;;;;;0.67;0.67;;;;;;;;;;5013998;28;20228;-75
2024/03/03 12:07:47;;;;;;;0.40;0.40;;;;;;;;;;5015421;28;20644;-76
2024/03/03 12:10:14;;;;;;;0.53;0.53;;;;;;;;;;5021206;28;20259;-76
2024/03/03 12:12:46;;;;;;;0.50;0.50;;;;;;;;;;5021638;28;20732;-76
2024/03/03 12:15:13;;;;;;;0.40;0.40;;;;;;;;;;5017195;28;20233;-75
2024/03/03 12:17:40;;;;;;;0.30;0.30;;;;;;;;;;5018785;28;20234;-76
2024/03/03 12:20:09;;;;;;;0.30;0.30;;;;;;;;;;5018497;28;20815;-76
2024/03/03 12:22:35;;;;;;;3.90;1.13;;;;;;;;;;5019169;28;20235;-76
2024/03/03 12:25:02;;;;;;;0.32;0.32;;;;;;;;;;4998281;28;20228;-74
2024/03/03 12:27:28;;;;;;;0.50;0.50;;;;;;;;;;5018501;28;20299;-76
2024/03/03 12:30:05;;;;;;;0.30;0.30;;;;;;;;;;5002182;28;20250;-76
2024/03/03 12:32:31;;;;;;;0.50;0.50;;;;;;;;;;5018560;28;20234;-76
2024/03/03 12:34:57;;;;;;;0.60;0.60;;;;;;;;;;5019654;28;20675;-76
2024/03/03 12:37:25;;;;;;;0.35;0.35;;;;;;;;;;5006374;28;20239;-76
2024/03/03 12:39:52;;;;;;;0.40;0.40;;;;;;;;;;5021194;28;20224;-74
2024/03/03 12:42:18;;;;;;;0.68;0.68;;;;;;;;;;5016072;28;20228;-75
2024/03/03 12:44:45;;;;;;;0.85;0.63;;;;;;;;;;5018056;28;20234;-76
2024/03/03 12:47:15;;;;;;;0.45;0.45;;;;;;;;;;5003511;28;20599;-75
2024/03/03 12:49:44;;;;;;;0.38;0.38;;;;;;;;;;5001971;28;20235;-74
2024/03/03 12:52:12;;;;;;;0.45;0.45;;;;;;;;;;5014480;28;20226;-76
2024/03/03 12:54:39;;;;;;;0.50;0.50;;;;;;;;;;5016525;28;20216;-75
2024/03/03 12:57:06;;;;;;;0.50;0.50;;;;;;;;;;5003296;28;20419;-75
2024/03/03 12:59:33;;;;;;;0.60;0.60;;;;;;;;;;5018401;28;20738;-75
2024/03/03 13:02:00;;;;;;;0.60;0.60;;;;;;;;;;5018145;28;20227;-74
2024/03/03 13:04:29;;;;;;;0.30;0.30;;;;;;;;;;5017894;28;20430;-76
2024/03/03 13:06:58;;;;;;;0.60;0.60;;;;;;;;;;5015673;28;20237;-75
2024/03/03 13:09:27;;;;;;;0.30;0.30;;;;;;;;;;5000991;28;20724;-74
2024/03/03 13:11:56;;;;;;;0.50;0.50;;;;;;;;;;5001860;28;20236;-74
2024/03/03 13:14:23;;;;;;;0.75;0.75;;;;;;;;;;5001669;28;20235;-76
2024/03/03 13:17:02;;;;;;;0.50;0.50;;;;;;;;;;5003604;28;20232;-76
2024/03/03 13:19:44;;;;;;;0.30;0.30;;;;;;;;;;4996424;28;20232;-76
2024/03/03 13:22:10;;;;;;;2.70;1.75;;;;;;;;;;4993397;28;20235;-77
2024/03/03 13:24:57;;;;;;;0.93;0.60;;;;;;;;;;4995770;28;20224;-74
2024/03/03 13:27:24;;;;;;;0.30;0.30;;;;;;;;;;4992893;28;20232;-76
2024/03/03 13:29:52;;;;;;;0.30;0.30;;;;;;;;;;4995444;28;20228;-75
2024/03/03 13:32:19;;;;;;;0.30;0.30;;;;;;;;;;4998275;28;20323;-76
2024/03/03 13:34:47;;;;;;;0.32;0.32;;;;;;;;;;4995858;28;21495;-76
2024/03/03 13:37:14;;;;;;;0.30;0.30;;;;;;;;;;4997933;28;21281;-75
2024/03/03 13:39:40;;;;;;;0.30;0.30;;;;;;;;;;5008965;28;20232;-74
2024/03/03 13:42:10;;;;;;;0.68;0.68;;;;;;;;;;5002111;28;20282;-75
2024/03/03 13:44:39;;;;;;;0.43;0.43;;;;;;;;;;5005982;28;20228;-75
2024/03/03 13:47:05;;;;;;;0.35;0.35;;;;;;;;;;5022908;28;20235;-76
2024/03/03 13:49:32;;;;;;;1.20;0.52;;;;;;;;;;5024179;28;20235;-75
2024/03/03 13:51:58;;;;;;;0.30;0.30;;;;;;;;;;5027334;28;20264;-77
2024/03/03 13:54:25;;;;;;;0.30;0.30;;;;;;;;;;5021782;28;20228;-72
2024/03/03 13:56:52;;;;;;;0.35;0.35;;;;;;;;;;5017557;28;21530;-75
2024/03/03 13:59:18;;;;;;;0.30;0.30;;;;;;;;;;5023457;28;20907;-73
2024/03/03 14:01:45;;;;;;;0.30;0.30;;;;;;;;;;5022192;28;20228;-73
2024/03/03 14:04:11;;;;;;;0.30;0.30;;;;;;;;;;5020464;28;20228;-73
2024/03/03 14:06:38;;;;;;;0.40;0.40;;;;;;;;;;5020465;28;20768;-74
2024/03/03 14:09:08;;;;;;;0.30;0.30;;;;;;;;;;5018826;28;20632;-72
2024/03/03 14:11:36;;;;;;;0.30;0.30;;;;;;;;;;5007430;28;20231;-73
2024/03/03 14:14:04;;;;;;;0.40;0.40;;;;;;;;;;5025324;28;20231;-72
2024/03/03 14:16:30;;;;;;;0.40;0.40;;;;;;;;;;5022041;28;20228;-74
2024/03/03 14:18:59;;;;;;;0.30;0.30;;;;;;;;;;5005469;28;20313;-73
2024/03/03 14:21:30;;;;;;;0.30;0.30;;;;;;;;;;5025981;28;20306;-72
2024/03/03 14:23:56;;;;;;;0.30;0.30;;;;;;;;;;5026863;28;20232;-73
2024/03/03 14:26:23;;;;;;;0.30;0.30;;;;;;;;;;5022324;28;20232;-72
2024/03/03 14:28:54;;;;;;;0.30;0.30;;;;;;;;;;5019544;28;21726;-73
2024/03/03 14:31:21;;;;;;;0.30;0.30;;;;;;;;;;5019058;28;20232;-72
2024/03/03 14:33:48;;;;;;;0.30;0.30;;;;;;;;;;5021152;28;20294;-74
2024/03/03 14:36:18;;;;;;;0.40;0.40;;;;;;;;;;5026314;28;20708;-73
2024/03/03 14:38:44;;;;;;;0.30;0.30;;;;;;;;;;5025994;28;20232;-74
2024/03/03 14:41:11;;;;;;;0.30;0.30;;;;;;;;;;5025332;28;20716;-73
2024/03/03 14:43:37;;;;;;;0.40;0.40;;;;;;;;;;5025022;28;20228;-73
2024/03/03 14:46:04;;;;;;;0.30;0.30;;;;;;;;;;5019527;28;20229;-72
2024/03/03 14:48:31;;;;;;;0.40;0.40;;;;;;;;;;5018714;28;20228;-74
2024/03/03 14:50:58;;;;;;;0.30;0.30;;;;;;;;;;5009498;28;20239;-72
2024/03/03 14:53:24;;;;;;;0.40;0.40;;;;;;;;;;5003539;28;20576;-72
2024/03/03 14:55:51;;;;;;;0.30;0.30;;;;;;;;;;5014253;28;20235;-73
2024/03/03 14:58:18;;;;;;;0.30;0.30;;;;;;;;;;5018489;28;20228;-72
2024/03/03 15:00:45;;;;;;;0.40;0.40;;;;;;;;;;5001395;28;20231;-74
2024/03/03 15:03:11;;;;;;;0.30;0.30;;;;;;;;;;5019396;28;20717;-72
2024/03/03 15:05:38;;;;;;;0.30;0.30;;;;;;;;;;5017546;28;20225;-72